sensor_id;sensor_type;location;lat;lon;timestamp;P1;durP1;ratioP1;P2;durP2;ratioP2
18296;SDS011;18066;52.106;5.534;2022-09-14T00:01:08;4.55;;;1.90;;
18296;SDS011;18066;52.106;5.534;2022-09-14T00:03:37;6.60;;;1.90;;
18296;SDS011;18066;52.106;5.534;2022-09-14T00:06:04;5.70;;;1.90;;
18296;SDS011;18066;52.106;5.534;2022-09-14T00:08:32;4.82;;;1.60;;
18296;SDS011;18066;52.106;5.534;2022-09-14T00:11:02;5.13;;;1.83;;
18296;SDS011;18066;52.106;5.534;2022-09-14T00:13:29;6.55;;;2.35;;
18296;SDS011;18066;52.106;5.534;2022-09-14T00:16:00;6.13;;;2.17;;
18296;SDS011;18066;52.106;5.534;2022-09-14T00:18:29;4.30;;;1.83;;
18296;SDS011;18066;52.106;5.534;2022-09-14T00:20:59;6.55;;;1.85;;
18296;SDS011;18066;52.106;5.534;2022-09-14T00:23:26;2.95;;;1.60;;
18296;SDS011;18066;52.106;5.534;2022-09-14T00:25:53;7.95;;;1.65;;
18296;SDS011;18066;52.106;5.534;2022-09-14T00:28:20;5.53;;;1.70;;
18296;SDS011;18066;52.106;5.534;2022-09-14T00:30:47;5.85;;;1.90;;
18296;SDS011;18066;52.106;5.534;2022-09-14T00:33:13;4.13;;;1.95;;
18296;SDS011;18066;52.106;5.534;2022-09-14T00:35:40;5.47;;;2.00;;
18296;SDS011;18066;52.106;5.534;2022-09-14T00:38:08;8.23;;;2.10;;
18296;SDS011;18066;52.106;5.534;2022-09-14T00:40:35;3.05;;;1.90;;
18296;SDS011;18066;52.106;5.534;2022-09-14T00:43:04;7.50;;;2.10;;
18296;SDS011;18066;52.106;5.534;2022-09-14T00:45:38;4.07;;;1.73;;
18296;SDS011;18066;52.106;5.534;2022-09-14T00:48:05;4.90;;;1.77;;
18296;SDS011;18066;52.106;5.534;2022-09-14T00:50:32;6.25;;;2.03;;
18296;SDS011;18066;52.106;5.534;2022-09-14T00:52:59;4.15;;;2.13;;
18296;SDS011;18066;52.106;5.534;2022-09-14T00:55:27;5.80;;;1.88;;
18296;SDS011;18066;52.106;5.534;2022-09-14T00:57:54;7.05;;;2.13;;
18296;SDS011;18066;52.106;5.534;2022-09-14T01:00:22;3.95;;;2.25;;
18296;SDS011;18066;52.106;5.534;2022-09-14T01:02:50;6.95;;;2.17;;
18296;SDS011;18066;52.106;5.534;2022-09-14T01:05:18;5.18;;;2.13;;
18296;SDS011;18066;52.106;5.534;2022-09-14T01:07:59;5.25;;;2.55;;
18296;SDS011;18066;52.106;5.534;2022-09-14T01:10:42;5.05;;;1.95;;
18296;SDS011;18066;52.106;5.534;2022-09-14T01:13:20;4.78;;;2.20;;
18296;SDS011;18066;52.106;5.534;2022-09-14T01:15:58;4.15;;;2.00;;
18296;SDS011;18066;52.106;5.534;2022-09-14T01:18:31;6.13;;;1.92;;
18296;SDS011;18066;52.106;5.534;2022-09-14T01:21:03;5.60;;;2.13;;
18296;SDS011;18066;52.106;5.534;2022-09-14T01:23:35;4.78;;;2.05;;
18296;SDS011;18066;52.106;5.534;2022-09-14T01:26:14;8.30;;;2.10;;
18296;SDS011;18066;52.106;5.534;2022-09-14T01:29:01;3.13;;;1.80;;
18296;SDS011;18066;52.106;5.534;2022-09-14T01:31:34;7.25;;;2.50;;
18296;SDS011;18066;52.106;5.534;2022-09-14T01:34:11;4.00;;;2.10;;
18296;SDS011;18066;52.106;5.534;2022-09-14T01:36:45;8.15;;;2.55;;
18296;SDS011;18066;52.106;5.534;2022-09-14T01:39:15;4.90;;;2.30;;
18296;SDS011;18066;52.106;5.534;2022-09-14T01:41:44;3.70;;;2.38;;
18296;SDS011;18066;52.106;5.534;2022-09-14T01:44:15;2.55;;;1.70;;
18296;SDS011;18066;52.106;5.534;2022-09-14T01:46:47;4.68;;;2.10;;
18296;SDS011;18066;52.106;5.534;2022-09-14T01:49:17;5.72;;;2.03;;
18296;SDS011;18066;52.106;5.534;2022-09-14T01:51:49;4.95;;;2.03;;
18296;SDS011;18066;52.106;5.534;2022-09-14T01:54:19;3.05;;;1.83;;
18296;SDS011;18066;52.106;5.534;2022-09-14T01:56:51;5.22;;;2.33;;
18296;SDS011;18066;52.106;5.534;2022-09-14T01:59:22;4.70;;;2.08;;
18296;SDS011;18066;52.106;5.534;2022-09-14T02:01:53;2.65;;;1.95;;
18296;SDS011;18066;52.106;5.534;2022-09-14T02:04:28;4.57;;;1.85;;
18296;SDS011;18066;52.106;5.534;2022-09-14T02:07:01;4.20;;;2.17;;
18296;SDS011;18066;52.106;5.534;2022-09-14T02:09:28;3.97;;;2.13;;
18296;SDS011;18066;52.106;5.534;2022-09-14T02:11:55;6.80;;;2.20;;
18296;SDS011;18066;52.106;5.534;2022-09-14T02:14:26;4.25;;;2.13;;
18296;SDS011;18066;52.106;5.534;2022-09-14T02:16:53;4.80;;;2.22;;
18296;SDS011;18066;52.106;5.534;2022-09-14T02:19:20;8.93;;;2.53;;
18296;SDS011;18066;52.106;5.534;2022-09-14T02:21:48;4.95;;;2.42;;
18296;SDS011;18066;52.106;5.534;2022-09-14T02:24:15;5.47;;;2.47;;
18296;SDS011;18066;52.106;5.534;2022-09-14T02:26:43;3.85;;;2.30;;
18296;SDS011;18066;52.106;5.534;2022-09-14T02:29:11;5.38;;;2.60;;
18296;SDS011;18066;52.106;5.534;2022-09-14T02:31:43;3.38;;;2.00;;
18296;SDS011;18066;52.106;5.534;2022-09-14T02:34:22;2.95;;;1.98;;
18296;SDS011;18066;52.106;5.534;2022-09-14T02:36:57;5.38;;;2.20;;
18296;SDS011;18066;52.106;5.534;2022-09-14T02:39:30;9.70;;;2.72;;
18296;SDS011;18066;52.106;5.534;2022-09-14T02:42:09;4.00;;;2.78;;
18296;SDS011;18066;52.106;5.534;2022-09-14T02:44:42;3.88;;;2.28;;
18296;SDS011;18066;52.106;5.534;2022-09-14T02:47:23;3.47;;;2.17;;
18296;SDS011;18066;52.106;5.534;2022-09-14T02:49:56;7.05;;;2.20;;
18296;SDS011;18066;52.106;5.534;2022-09-14T02:52:29;5.05;;;2.20;;
18296;SDS011;18066;52.106;5.534;2022-09-14T02:55:02;2.95;;;2.08;;
18296;SDS011;18066;52.106;5.534;2022-09-14T02:57:32;3.90;;;1.92;;
18296;SDS011;18066;52.106;5.534;2022-09-14T03:00:26;4.53;;;2.13;;
18296;SDS011;18066;52.106;5.534;2022-09-14T03:02:55;3.55;;;2.05;;
18296;SDS011;18066;52.106;5.534;2022-09-14T03:05:22;3.67;;;2.25;;
18296;SDS011;18066;52.106;5.534;2022-09-14T03:07:49;7.57;;;2.60;;
18296;SDS011;18066;52.106;5.534;2022-09-14T03:10:15;7.47;;;2.30;;
18296;SDS011;18066;52.106;5.534;2022-09-14T03:12:42;4.38;;;2.33;;
18296;SDS011;18066;52.106;5.534;2022-09-14T03:15:09;5.72;;;2.20;;
18296;SDS011;18066;52.106;5.534;2022-09-14T03:17:36;5.78;;;2.35;;
18296;SDS011;18066;52.106;5.534;2022-09-14T03:20:04;5.25;;;2.58;;
18296;SDS011;18066;52.106;5.534;2022-09-14T03:22:31;4.75;;;2.17;;
18296;SDS011;18066;52.106;5.534;2022-09-14T03:24:58;5.93;;;2.58;;
18296;SDS011;18066;52.106;5.534;2022-09-14T03:27:25;5.22;;;2.70;;
18296;SDS011;18066;52.106;5.534;2022-09-14T03:29:51;6.55;;;2.72;;
18296;SDS011;18066;52.106;5.534;2022-09-14T03:32:18;6.55;;;2.70;;
18296;SDS011;18066;52.106;5.534;2022-09-14T03:34:45;5.13;;;2.38;;
18296;SDS011;18066;52.106;5.534;2022-09-14T03:37:13;9.38;;;2.78;;
18296;SDS011;18066;52.106;5.534;2022-09-14T03:39:39;6.80;;;2.92;;
18296;SDS011;18066;52.106;5.534;2022-09-14T03:42:06;7.70;;;2.88;;
18296;SDS011;18066;52.106;5.534;2022-09-14T03:44:33;7.90;;;3.05;;
18296;SDS011;18066;52.106;5.534;2022-09-14T03:47:00;5.80;;;2.90;;
18296;SDS011;18066;52.106;5.534;2022-09-14T03:49:26;8.88;;;2.72;;
18296;SDS011;18066;52.106;5.534;2022-09-14T03:51:53;9.40;;;2.92;;
18296;SDS011;18066;52.106;5.534;2022-09-14T03:54:21;6.85;;;2.95;;
18296;SDS011;18066;52.106;5.534;2022-09-14T03:56:50;6.80;;;2.40;;
18296;SDS011;18066;52.106;5.534;2022-09-14T03:59:17;5.45;;;2.67;;
18296;SDS011;18066;52.106;5.534;2022-09-14T04:01:44;5.38;;;3.10;;
18296;SDS011;18066;52.106;5.534;2022-09-14T04:04:10;5.65;;;2.90;;
18296;SDS011;18066;52.106;5.534;2022-09-14T04:06:37;3.60;;;2.53;;
18296;SDS011;18066;52.106;5.534;2022-09-14T04:09:04;5.90;;;2.65;;
18296;SDS011;18066;52.106;5.534;2022-09-14T04:11:32;6.82;;;2.60;;
18296;SDS011;18066;52.106;5.534;2022-09-14T04:14:00;5.78;;;2.88;;
18296;SDS011;18066;52.106;5.534;2022-09-14T04:16:27;7.72;;;2.65;;
18296;SDS011;18066;52.106;5.534;2022-09-14T04:18:54;5.88;;;2.53;;
18296;SDS011;18066;52.106;5.534;2022-09-14T04:21:23;3.95;;;2.63;;
18296;SDS011;18066;52.106;5.534;2022-09-14T04:23:51;4.97;;;2.47;;
18296;SDS011;18066;52.106;5.534;2022-09-14T04:26:19;4.32;;;2.28;;
18296;SDS011;18066;52.106;5.534;2022-09-14T04:28:48;3.83;;;2.40;;
18296;SDS011;18066;52.106;5.534;2022-09-14T04:31:15;4.28;;;2.83;;
18296;SDS011;18066;52.106;5.534;2022-09-14T04:33:43;5.40;;;2.22;;
18296;SDS011;18066;52.106;5.534;2022-09-14T04:36:13;4.43;;;2.30;;
18296;SDS011;18066;52.106;5.534;2022-09-14T04:38:41;5.53;;;2.40;;
18296;SDS011;18066;52.106;5.534;2022-09-14T04:41:09;3.78;;;2.28;;
18296;SDS011;18066;52.106;5.534;2022-09-14T04:43:37;5.10;;;2.05;;
18296;SDS011;18066;52.106;5.534;2022-09-14T04:46:07;3.65;;;2.38;;
18296;SDS011;18066;52.106;5.534;2022-09-14T04:48:36;4.93;;;2.50;;
18296;SDS011;18066;52.106;5.534;2022-09-14T04:51:03;6.35;;;2.38;;
18296;SDS011;18066;52.106;5.534;2022-09-14T04:53:31;8.30;;;2.67;;
18296;SDS011;18066;52.106;5.534;2022-09-14T04:55:59;7.20;;;2.30;;
18296;SDS011;18066;52.106;5.534;2022-09-14T04:58:26;12.85;;;2.67;;
18296;SDS011;18066;52.106;5.534;2022-09-14T05:00:53;6.60;;;2.40;;
18296;SDS011;18066;52.106;5.534;2022-09-14T05:03:21;3.50;;;2.28;;
18296;SDS011;18066;52.106;5.534;2022-09-14T05:05:48;3.58;;;2.45;;
18296;SDS011;18066;52.106;5.534;2022-09-14T05:08:15;8.13;;;2.50;;
18296;SDS011;18066;52.106;5.534;2022-09-14T05:10:41;7.03;;;2.83;;
18296;SDS011;18066;52.106;5.534;2022-09-14T05:13:08;5.85;;;2.70;;
18296;SDS011;18066;52.106;5.534;2022-09-14T05:15:35;3.20;;;1.95;;
18296;SDS011;18066;52.106;5.534;2022-09-14T05:18:02;8.60;;;2.63;;
18296;SDS011;18066;52.106;5.534;2022-09-14T05:20:30;2.92;;;2.20;;
18296;SDS011;18066;52.106;5.534;2022-09-14T05:22:57;7.25;;;2.50;;
18296;SDS011;18066;52.106;5.534;2022-09-14T05:25:23;8.13;;;2.72;;
18296;SDS011;18066;52.106;5.534;2022-09-14T05:27:51;5.63;;;2.70;;
18296;SDS011;18066;52.106;5.534;2022-09-14T05:30:17;3.88;;;2.70;;
18296;SDS011;18066;52.106;5.534;2022-09-14T05:32:44;6.20;;;2.65;;
18296;SDS011;18066;52.106;5.534;2022-09-14T05:35:11;5.57;;;2.95;;
18296;SDS011;18066;52.106;5.534;2022-09-14T05:37:39;7.25;;;2.63;;
18296;SDS011;18066;52.106;5.534;2022-09-14T05:40:06;4.75;;;2.65;;
18296;SDS011;18066;52.106;5.534;2022-09-14T05:42:33;8.40;;;2.85;;
18296;SDS011;18066;52.106;5.534;2022-09-14T05:45:00;3.35;;;2.35;;
18296;SDS011;18066;52.106;5.534;2022-09-14T05:47:28;5.78;;;2.55;;
18296;SDS011;18066;52.106;5.534;2022-09-14T05:49:55;5.28;;;2.95;;
18296;SDS011;18066;52.106;5.534;2022-09-14T05:52:22;4.47;;;2.50;;
18296;SDS011;18066;52.106;5.534;2022-09-14T05:54:50;6.20;;;2.95;;
18296;SDS011;18066;52.106;5.534;2022-09-14T05:57:17;5.53;;;2.72;;
18296;SDS011;18066;52.106;5.534;2022-09-14T05:59:44;5.05;;;2.47;;
18296;SDS011;18066;52.106;5.534;2022-09-14T06:02:11;4.32;;;2.20;;
18296;SDS011;18066;52.106;5.534;2022-09-14T06:04:37;4.47;;;2.17;;
18296;SDS011;18066;52.106;5.534;2022-09-14T06:07:04;10.88;;;2.75;;
18296;SDS011;18066;52.106;5.534;2022-09-14T06:09:31;4.53;;;2.38;;
18296;SDS011;18066;52.106;5.534;2022-09-14T06:11:59;3.60;;;2.65;;
18296;SDS011;18066;52.106;5.534;2022-09-14T06:14:25;4.30;;;2.38;;
18296;SDS011;18066;52.106;5.534;2022-09-14T06:16:52;5.00;;;3.17;;
18296;SDS011;18066;52.106;5.534;2022-09-14T06:19:19;5.93;;;2.58;;
18296;SDS011;18066;52.106;5.534;2022-09-14T06:21:45;7.70;;;2.90;;
18296;SDS011;18066;52.106;5.534;2022-09-14T06:24:12;4.57;;;2.60;;
18296;SDS011;18066;52.106;5.534;2022-09-14T06:26:39;5.15;;;2.45;;
18296;SDS011;18066;52.106;5.534;2022-09-14T06:29:07;5.65;;;3.03;;
18296;SDS011;18066;52.106;5.534;2022-09-14T06:31:34;3.55;;;2.30;;
18296;SDS011;18066;52.106;5.534;2022-09-14T06:34:01;6.57;;;2.92;;
18296;SDS011;18066;52.106;5.534;2022-09-14T06:36:28;4.75;;;3.03;;
18296;SDS011;18066;52.106;5.534;2022-09-14T06:38:55;10.43;;;2.88;;
18296;SDS011;18066;52.106;5.534;2022-09-14T06:41:25;5.53;;;2.60;;
18296;SDS011;18066;52.106;5.534;2022-09-14T06:43:54;6.63;;;2.60;;
18296;SDS011;18066;52.106;5.534;2022-09-14T06:46:24;6.88;;;2.70;;
18296;SDS011;18066;52.106;5.534;2022-09-14T06:48:53;7.03;;;2.90;;
18296;SDS011;18066;52.106;5.534;2022-09-14T06:51:22;10.82;;;3.00;;
18296;SDS011;18066;52.106;5.534;2022-09-14T06:53:50;5.55;;;2.58;;
18296;SDS011;18066;52.106;5.534;2022-09-14T06:56:18;8.13;;;2.85;;
18296;SDS011;18066;52.106;5.534;2022-09-14T06:58:44;5.95;;;3.13;;
18296;SDS011;18066;52.106;5.534;2022-09-14T07:01:12;5.85;;;2.88;;
18296;SDS011;18066;52.106;5.534;2022-09-14T07:03:41;4.15;;;2.50;;
18296;SDS011;18066;52.106;5.534;2022-09-14T07:06:09;7.65;;;2.75;;
18296;SDS011;18066;52.106;5.534;2022-09-14T07:08:38;9.60;;;2.90;;
18296;SDS011;18066;52.106;5.534;2022-09-14T07:11:05;7.75;;;2.60;;
18296;SDS011;18066;52.106;5.534;2022-09-14T07:13:33;5.00;;;2.80;;
18296;SDS011;18066;52.106;5.534;2022-09-14T07:16:00;6.80;;;2.80;;
18296;SDS011;18066;52.106;5.534;2022-09-14T07:18:28;4.72;;;2.50;;
18296;SDS011;18066;52.106;5.534;2022-09-14T07:21:01;4.28;;;2.15;;
18296;SDS011;18066;52.106;5.534;2022-09-14T07:23:28;3.65;;;2.40;;
18296;SDS011;18066;52.106;5.534;2022-09-14T07:25:59;3.10;;;2.20;;
18296;SDS011;18066;52.106;5.534;2022-09-14T07:28:26;4.80;;;2.05;;
18296;SDS011;18066;52.106;5.534;2022-09-14T07:30:53;5.97;;;2.50;;
18296;SDS011;18066;52.106;5.534;2022-09-14T07:33:21;6.00;;;2.75;;
18296;SDS011;18066;52.106;5.534;2022-09-14T07:35:47;7.07;;;2.25;;
18296;SDS011;18066;52.106;5.534;2022-09-14T07:38:15;6.55;;;2.45;;
18296;SDS011;18066;52.106;5.534;2022-09-14T07:40:42;5.50;;;2.38;;
18296;SDS011;18066;52.106;5.534;2022-09-14T07:43:09;4.50;;;2.55;;
18296;SDS011;18066;52.106;5.534;2022-09-14T07:45:36;5.55;;;2.42;;
18296;SDS011;18066;52.106;5.534;2022-09-14T07:48:03;4.97;;;2.13;;
18296;SDS011;18066;52.106;5.534;2022-09-14T07:50:30;8.48;;;2.90;;
18296;SDS011;18066;52.106;5.534;2022-09-14T07:52:57;7.70;;;2.20;;
18296;SDS011;18066;52.106;5.534;2022-09-14T07:55:25;3.30;;;2.08;;
18296;SDS011;18066;52.106;5.534;2022-09-14T07:57:53;7.10;;;2.35;;
18296;SDS011;18066;52.106;5.534;2022-09-14T08:00:20;4.97;;;1.92;;
18296;SDS011;18066;52.106;5.534;2022-09-14T08:02:50;11.25;;;2.08;;
18296;SDS011;18066;52.106;5.534;2022-09-14T08:05:17;6.43;;;1.70;;
18296;SDS011;18066;52.106;5.534;2022-09-14T08:07:44;2.80;;;1.80;;
18296;SDS011;18066;52.106;5.534;2022-09-14T08:10:11;3.47;;;1.77;;
18296;SDS011;18066;52.106;5.534;2022-09-14T08:12:39;7.68;;;2.00;;
18296;SDS011;18066;52.106;5.534;2022-09-14T08:15:06;3.70;;;1.83;;
18296;SDS011;18066;52.106;5.534;2022-09-14T08:17:34;9.88;;;1.60;;
18296;SDS011;18066;52.106;5.534;2022-09-14T08:20:01;4.90;;;2.58;;
18296;SDS011;18066;52.106;5.534;2022-09-14T08:22:28;4.55;;;1.50;;
18296;SDS011;18066;52.106;5.534;2022-09-14T08:24:55;4.22;;;1.70;;
18296;SDS011;18066;52.106;5.534;2022-09-14T08:27:21;8.43;;;2.15;;
18296;SDS011;18066;52.106;5.534;2022-09-14T08:29:50;9.05;;;1.75;;
18296;SDS011;18066;52.106;5.534;2022-09-14T08:32:16;6.70;;;2.60;;
18296;SDS011;18066;52.106;5.534;2022-09-14T08:34:43;4.50;;;1.70;;
18296;SDS011;18066;52.106;5.534;2022-09-14T08:37:11;5.28;;;1.90;;
18296;SDS011;18066;52.106;5.534;2022-09-14T08:39:39;9.57;;;2.25;;
18296;SDS011;18066;52.106;5.534;2022-09-14T08:42:07;8.43;;;2.40;;
18296;SDS011;18066;52.106;5.534;2022-09-14T08:44:40;11.07;;;1.80;;
18296;SDS011;18066;52.106;5.534;2022-09-14T08:47:11;3.65;;;1.52;;
18296;SDS011;18066;52.106;5.534;2022-09-14T08:49:43;5.03;;;1.83;;
18296;SDS011;18066;52.106;5.534;2022-09-14T08:52:13;5.68;;;1.80;;
18296;SDS011;18066;52.106;5.534;2022-09-14T08:54:43;7.07;;;1.95;;
18296;SDS011;18066;52.106;5.534;2022-09-14T08:57:18;7.15;;;2.38;;
18296;SDS011;18066;52.106;5.534;2022-09-14T08:59:51;7.35;;;1.73;;
18296;SDS011;18066;52.106;5.534;2022-09-14T09:02:32;4.60;;;1.70;;
18296;SDS011;18066;52.106;5.534;2022-09-14T09:05:22;5.20;;;1.92;;
18296;SDS011;18066;52.106;5.534;2022-09-14T09:08:15;2.67;;;1.58;;
18296;SDS011;18066;52.106;5.534;2022-09-14T09:10:45;3.00;;;1.40;;
18296;SDS011;18066;52.106;5.534;2022-09-14T09:13:13;5.25;;;1.90;;
18296;SDS011;18066;52.106;5.534;2022-09-14T09:15:44;3.65;;;1.60;;
18296;SDS011;18066;52.106;5.534;2022-09-14T09:18:17;7.65;;;1.60;;
18296;SDS011;18066;52.106;5.534;2022-09-14T09:20:49;5.80;;;1.70;;
18296;SDS011;18066;52.106;5.534;2022-09-14T09:23:18;8.88;;;2.15;;
18296;SDS011;18066;52.106;5.534;2022-09-14T09:25:48;4.82;;;2.03;;
18296;SDS011;18066;52.106;5.534;2022-09-14T09:28:18;7.30;;;2.30;;
18296;SDS011;18066;52.106;5.534;2022-09-14T09:30:46;8.23;;;2.20;;
18296;SDS011;18066;52.106;5.534;2022-09-14T09:33:15;3.42;;;1.83;;
18296;SDS011;18066;52.106;5.534;2022-09-14T09:35:44;9.43;;;2.25;;
18296;SDS011;18066;52.106;5.534;2022-09-14T09:38:12;3.17;;;1.75;;
18296;SDS011;18066;52.106;5.534;2022-09-14T09:40:43;4.22;;;1.90;;
18296;SDS011;18066;52.106;5.534;2022-09-14T09:43:12;5.10;;;2.05;;
18296;SDS011;18066;52.106;5.534;2022-09-14T09:45:45;9.57;;;2.05;;
18296;SDS011;18066;52.106;5.534;2022-09-14T09:48:16;4.53;;;2.10;;
18296;SDS011;18066;52.106;5.534;2022-09-14T09:50:48;8.93;;;2.03;;
18296;SDS011;18066;52.106;5.534;2022-09-14T09:53:20;7.47;;;2.50;;
18296;SDS011;18066;52.106;5.534;2022-09-14T09:55:48;4.82;;;1.40;;
18296;SDS011;18066;52.106;5.534;2022-09-14T09:58:19;5.82;;;1.90;;
18296;SDS011;18066;52.106;5.534;2022-09-14T10:00:54;4.60;;;1.98;;
18296;SDS011;18066;52.106;5.534;2022-09-14T10:03:27;7.20;;;2.45;;
18296;SDS011;18066;52.106;5.534;2022-09-14T10:05:59;6.50;;;1.55;;
18296;SDS011;18066;52.106;5.534;2022-09-14T10:08:28;3.97;;;1.88;;
18296;SDS011;18066;52.106;5.534;2022-09-14T10:10:59;5.40;;;1.85;;
18296;SDS011;18066;52.106;5.534;2022-09-14T10:13:28;4.38;;;2.03;;
18296;SDS011;18066;52.106;5.534;2022-09-14T10:18:51;5.50;;;1.92;;
18296;SDS011;18066;52.106;5.534;2022-09-14T10:21:19;7.82;;;2.03;;
18296;SDS011;18066;52.106;5.534;2022-09-14T10:23:46;5.20;;;2.40;;
18296;SDS011;18066;52.106;5.534;2022-09-14T10:26:30;4.53;;;1.80;;
18296;SDS011;18066;52.106;5.534;2022-09-14T10:29:18;5.93;;;2.05;;
18296;SDS011;18066;52.106;5.534;2022-09-14T10:31:56;4.47;;;1.88;;
18296;SDS011;18066;52.106;5.534;2022-09-14T10:34:30;3.58;;;1.80;;
18296;SDS011;18066;52.106;5.534;2022-09-14T10:37:02;3.90;;;2.10;;
18296;SDS011;18066;52.106;5.534;2022-09-14T10:39:38;5.90;;;2.17;;
18296;SDS011;18066;52.106;5.534;2022-09-14T10:42:22;9.45;;;3.08;;
18296;SDS011;18066;52.106;5.534;2022-09-14T10:45:02;8.52;;;2.47;;
18296;SDS011;18066;52.106;5.534;2022-09-14T10:47:43;9.45;;;2.28;;
18296;SDS011;18066;52.106;5.534;2022-09-14T10:50:35;8.13;;;2.47;;
18296;SDS011;18066;52.106;5.534;2022-09-14T10:53:15;4.93;;;2.33;;
18296;SDS011;18066;52.106;5.534;2022-09-14T10:55:55;5.28;;;2.30;;
18296;SDS011;18066;52.106;5.534;2022-09-14T10:58:33;5.00;;;2.22;;
18296;SDS011;18066;52.106;5.534;2022-09-14T11:01:17;7.10;;;2.53;;
18296;SDS011;18066;52.106;5.534;2022-09-14T11:03:57;5.78;;;1.88;;
18296;SDS011;18066;52.106;5.534;2022-09-14T11:06:41;3.88;;;1.83;;
18296;SDS011;18066;52.106;5.534;2022-09-14T11:09:15;7.15;;;2.63;;
18296;SDS011;18066;52.106;5.534;2022-09-14T11:11:49;3.55;;;2.08;;
18296;SDS011;18066;52.106;5.534;2022-09-14T11:14:24;7.32;;;2.53;;
18296;SDS011;18066;52.106;5.534;2022-09-14T11:17:05;7.53;;;2.28;;
18296;SDS011;18066;52.106;5.534;2022-09-14T11:19:45;4.85;;;2.38;;
18296;SDS011;18066;52.106;5.534;2022-09-14T11:22:20;7.80;;;2.25;;
18296;SDS011;18066;52.106;5.534;2022-09-14T11:24:54;6.38;;;2.42;;
18296;SDS011;18066;52.106;5.534;2022-09-14T11:27:25;9.18;;;2.50;;
18296;SDS011;18066;52.106;5.534;2022-09-14T11:29:55;3.03;;;1.70;;
18296;SDS011;18066;52.106;5.534;2022-09-14T11:32:26;7.55;;;2.05;;
18296;SDS011;18066;52.106;5.534;2022-09-14T11:34:57;7.72;;;2.63;;
18296;SDS011;18066;52.106;5.534;2022-09-14T11:37:31;7.72;;;2.47;;
18296;SDS011;18066;52.106;5.534;2022-09-14T11:40:05;7.25;;;1.92;;
18296;SDS011;18066;52.106;5.534;2022-09-14T11:42:39;9.20;;;3.05;;
18296;SDS011;18066;52.106;5.534;2022-09-14T11:45:13;2.20;;;1.50;;
18296;SDS011;18066;52.106;5.534;2022-09-14T11:47:45;5.88;;;2.15;;
18296;SDS011;18066;52.106;5.534;2022-09-14T11:50:18;3.35;;;1.90;;
18296;SDS011;18066;52.106;5.534;2022-09-14T11:52:50;4.40;;;1.98;;
18296;SDS011;18066;52.106;5.534;2022-09-14T11:55:23;4.28;;;1.73;;
18296;SDS011;18066;52.106;5.534;2022-09-14T11:57:50;8.02;;;2.10;;
18296;SDS011;18066;52.106;5.534;2022-09-14T12:03:12;6.28;;;1.90;;
18296;SDS011;18066;52.106;5.534;2022-09-14T12:05:41;4.07;;;1.77;;
18296;SDS011;18066;52.106;5.534;2022-09-14T12:08:36;7.15;;;2.17;;
18296;SDS011;18066;52.106;5.534;2022-09-14T12:11:24;4.85;;;1.90;;
18296;SDS011;18066;52.106;5.534;2022-09-14T12:14:11;6.40;;;1.80;;
18296;SDS011;18066;52.106;5.534;2022-09-14T12:19:38;8.45;;;1.77;;
18296;SDS011;18066;52.106;5.534;2022-09-14T12:22:18;6.15;;;2.20;;
18296;SDS011;18066;52.106;5.534;2022-09-14T12:24:58;7.70;;;1.90;;
18296;SDS011;18066;52.106;5.534;2022-09-14T12:27:28;8.20;;;2.25;;
18296;SDS011;18066;52.106;5.534;2022-09-14T12:29:56;5.63;;;1.38;;
18296;SDS011;18066;52.106;5.534;2022-09-14T12:32:25;6.65;;;1.58;;
18296;SDS011;18066;52.106;5.534;2022-09-14T12:44:32;4.53;;;1.55;;
18296;SDS011;18066;52.106;5.534;2022-09-14T12:50:03;4.20;;;1.27;;
18296;SDS011;18066;52.106;5.534;2022-09-14T12:52:34;5.10;;;1.52;;
18296;SDS011;18066;52.106;5.534;2022-09-14T12:55:14;6.32;;;1.88;;
18296;SDS011;18066;52.106;5.534;2022-09-14T12:57:50;5.75;;;1.52;;
18296;SDS011;18066;52.106;5.534;2022-09-14T13:00:26;3.80;;;1.48;;
18296;SDS011;18066;52.106;5.534;2022-09-14T13:03:08;2.67;;;1.25;;
18296;SDS011;18066;52.106;5.534;2022-09-14T13:05:56;5.38;;;1.42;;
18296;SDS011;18066;52.106;5.534;2022-09-14T13:08:23;4.18;;;1.50;;
18296;SDS011;18066;52.106;5.534;2022-09-14T13:10:50;2.53;;;1.33;;
18296;SDS011;18066;52.106;5.534;2022-09-14T13:13:19;4.07;;;1.40;;
18296;SDS011;18066;52.106;5.534;2022-09-14T13:15:48;3.20;;;1.30;;
18296;SDS011;18066;52.106;5.534;2022-09-14T13:18:26;3.42;;;1.40;;
18296;SDS011;18066;52.106;5.534;2022-09-14T13:20:55;5.25;;;1.80;;
18296;SDS011;18066;52.106;5.534;2022-09-14T13:23:27;6.78;;;1.20;;
18296;SDS011;18066;52.106;5.534;2022-09-14T13:25:57;6.13;;;1.30;;
18296;SDS011;18066;52.106;5.534;2022-09-14T13:28:26;4.10;;;1.63;;
18296;SDS011;18066;52.106;5.534;2022-09-14T13:30:56;4.00;;;1.30;;
18296;SDS011;18066;52.106;5.534;2022-09-14T13:33:24;5.03;;;1.70;;
18296;SDS011;18066;52.106;5.534;2022-09-14T13:35:53;4.05;;;1.15;;
18296;SDS011;18066;52.106;5.534;2022-09-14T13:38:22;8.10;;;1.90;;
18296;SDS011;18066;52.106;5.534;2022-09-14T13:40:51;3.78;;;1.50;;
18296;SDS011;18066;52.106;5.534;2022-09-14T13:43:19;6.32;;;1.55;;
18296;SDS011;18066;52.106;5.534;2022-09-14T13:45:49;7.40;;;1.60;;
18296;SDS011;18066;52.106;5.534;2022-09-14T13:48:17;3.88;;;1.27;;
18296;SDS011;18066;52.106;5.534;2022-09-14T13:50:46;3.20;;;1.13;;
18296;SDS011;18066;52.106;5.534;2022-09-14T13:56:15;5.32;;;1.10;;
18296;SDS011;18066;52.106;5.534;2022-09-14T13:59:12;6.10;;;1.10;;
18296;SDS011;18066;52.106;5.534;2022-09-14T14:01:49;4.80;;;1.00;;
18296;SDS011;18066;52.106;5.534;2022-09-14T14:04:21;3.00;;;0.80;;
18296;SDS011;18066;52.106;5.534;2022-09-14T14:06:58;6.90;;;1.33;;
18296;SDS011;18066;52.106;5.534;2022-09-14T14:09:38;3.53;;;1.10;;
18296;SDS011;18066;52.106;5.534;2022-09-14T14:12:08;7.75;;;1.38;;
18296;SDS011;18066;52.106;5.534;2022-09-14T14:14:36;5.13;;;1.10;;
18296;SDS011;18066;52.106;5.534;2022-09-14T14:19:59;4.10;;;1.10;;
18296;SDS011;18066;52.106;5.534;2022-09-14T14:22:55;5.85;;;1.27;;
18296;SDS011;18066;52.106;5.534;2022-09-14T14:25:26;4.75;;;1.38;;
18296;SDS011;18066;52.106;5.534;2022-09-14T14:27:59;4.25;;;1.20;;
18296;SDS011;18066;52.106;5.534;2022-09-14T14:30:27;4.18;;;1.20;;
18296;SDS011;18066;52.106;5.534;2022-09-14T14:32:57;3.22;;;1.05;;
18296;SDS011;18066;52.106;5.534;2022-09-14T14:35:26;5.57;;;1.35;;
18296;SDS011;18066;52.106;5.534;2022-09-14T14:37:54;3.20;;;1.20;;
18296;SDS011;18066;52.106;5.534;2022-09-14T14:40:21;4.45;;;1.00;;
18296;SDS011;18066;52.106;5.534;2022-09-14T14:42:51;5.60;;;1.27;;
18296;SDS011;18066;52.106;5.534;2022-09-14T14:45:20;7.75;;;1.30;;
18296;SDS011;18066;52.106;5.534;2022-09-14T14:47:48;3.85;;;1.13;;
18296;SDS011;18066;52.106;5.534;2022-09-14T14:50:17;2.95;;;1.30;;
18296;SDS011;18066;52.106;5.534;2022-09-14T14:52:45;3.00;;;0.85;;
18296;SDS011;18066;52.106;5.534;2022-09-14T14:55:12;4.60;;;1.20;;
18296;SDS011;18066;52.106;5.534;2022-09-14T14:57:39;3.00;;;1.10;;
18296;SDS011;18066;52.106;5.534;2022-09-14T15:00:10;3.47;;;1.05;;
18296;SDS011;18066;52.106;5.534;2022-09-14T15:02:39;7.43;;;1.00;;
18296;SDS011;18066;52.106;5.534;2022-09-14T15:05:06;5.32;;;1.55;;
18296;SDS011;18066;52.106;5.534;2022-09-14T15:07:34;6.43;;;1.30;;
18296;SDS011;18066;52.106;5.534;2022-09-14T15:10:01;2.15;;;0.90;;
18296;SDS011;18066;52.106;5.534;2022-09-14T15:12:28;6.70;;;1.58;;
18296;SDS011;18066;52.106;5.534;2022-09-14T15:14:56;5.18;;;1.20;;
18296;SDS011;18066;52.106;5.534;2022-09-14T15:17:25;4.25;;;1.13;;
18296;SDS011;18066;52.106;5.534;2022-09-14T15:19:52;3.78;;;1.30;;
18296;SDS011;18066;52.106;5.534;2022-09-14T15:22:19;4.40;;;1.17;;
18296;SDS011;18066;52.106;5.534;2022-09-14T15:24:47;3.83;;;1.10;;
18296;SDS011;18066;52.106;5.534;2022-09-14T15:27:14;5.72;;;1.20;;
18296;SDS011;18066;52.106;5.534;2022-09-14T15:29:40;3.30;;;1.08;;
18296;SDS011;18066;52.106;5.534;2022-09-14T15:32:07;6.55;;;1.42;;
18296;SDS011;18066;52.106;5.534;2022-09-14T15:34:34;1.88;;;0.82;;